createdAt,value
2018-11-26T00:00:43.887Z,24.92
2018-11-26T00:03:18.861Z,26.70
2018-11-26T00:05:53.975Z,25.55
2018-11-26T00:08:28.937Z,25.50
2018-11-26T00:11:43.047Z,25.72
2018-11-26T00:14:18.284Z,27.32
2018-11-26T00:16:54.514Z,26.95
2018-11-26T00:19:29.460Z,26.93
2018-11-26T00:22:04.606Z,27.22
2018-11-26T00:24:40.114Z,26.83
2018-11-26T00:27:15.016Z,27.35
2018-11-26T00:29:50.426Z,27.45
2018-11-26T00:32:25.063Z,25.85
2018-11-26T00:34:59.840Z,26.65
2018-11-26T00:37:35.019Z,26.50
2018-11-26T00:40:11.188Z,26.70
2018-11-26T00:42:46.462Z,26.02
2018-11-26T00:45:21.588Z,26.37
2018-11-26T00:47:56.639Z,25.65
2018-11-26T00:50:31.284Z,25.55
2018-11-26T00:53:07.096Z,26.73
2018-11-26T00:55:41.910Z,26.97
2018-11-26T00:58:17.112Z,26.45
2018-11-26T01:00:52.322Z,26.82
2018-11-26T01:03:27.435Z,29.32
2018-11-26T01:06:02.611Z,27.58
2018-11-26T01:08:37.813Z,27.48
2018-11-26T01:11:12.735Z,26.65
2018-11-26T01:13:47.520Z,27.98
2018-11-26T01:16:22.463Z,26.15
2018-11-26T01:18:57.490Z,25.25
2018-11-26T01:21:32.126Z,25.05
2018-11-26T01:24:07.063Z,24.80
2018-11-26T01:26:42.249Z,24.77
2018-11-26T01:29:17.175Z,24.23
2018-11-26T01:31:51.894Z,25.15
2018-11-26T01:34:27.473Z,24.85
2018-11-26T01:37:02.635Z,24.95
2018-11-26T01:39:37.815Z,25.32
2018-11-26T01:42:12.778Z,25.10
2018-11-26T01:44:47.611Z,26.20
2018-11-26T01:47:22.419Z,24.65
2018-11-26T01:49:57.319Z,25.20
2018-11-26T01:52:32.201Z,25.55
2018-11-26T01:55:08.650Z,25.27
2018-11-26T01:57:43.578Z,31.50
2018-11-26T02:00:21.021Z,33.10
2018-11-26T02:02:56.303Z,31.30
2018-11-26T02:05:31.537Z,31.00
2018-11-26T02:08:07.185Z,28.35
2018-11-26T02:10:42.180Z,29.55
2018-11-26T02:13:17.275Z,55.60
2018-11-26T02:15:52.399Z,64.47
2018-11-26T02:18:27.793Z,46.63
2018-11-26T02:21:03.179Z,41.53
2018-11-26T02:23:38.736Z,28.38
2018-11-26T02:26:13.755Z,29.18
2018-11-26T02:28:48.815Z,42.40
2018-11-26T02:31:24.072Z,31.55
2018-11-26T02:33:59.307Z,37.20
2018-11-26T02:36:34.315Z,137.85
2018-11-26T02:39:09.456Z,29.95
2018-11-26T02:41:44.248Z,29.02
2018-11-26T02:44:19.593Z,28.35
2018-11-26T02:46:54.696Z,31.80
2018-11-26T02:49:29.691Z,30.83
2018-11-26T02:52:05.250Z,28.50
2018-11-26T02:54:39.815Z,29.90
2018-11-26T02:57:14.709Z,25.88
2018-11-26T02:59:49.851Z,24.92
2018-11-26T03:02:24.897Z,25.50
2018-11-26T03:04:59.627Z,26.10
2018-11-26T03:07:34.760Z,30.80
2018-11-26T03:10:11.012Z,27.62
2018-11-26T03:12:45.964Z,26.97
2018-11-26T03:15:21.155Z,25.50
2018-11-26T03:17:56.658Z,31.15
2018-11-26T03:20:31.596Z,29.70
2018-11-26T03:23:07.692Z,28.50
2018-11-26T03:25:42.608Z,24.90
2018-11-26T03:28:17.535Z,82.10
2018-11-26T03:30:52.480Z,39.18
2018-11-26T03:33:27.350Z,28.67
2018-11-26T03:36:02.307Z,30.50
2018-11-26T03:38:57.199Z,29.30
2018-11-26T03:41:32.606Z,69.58
2018-11-26T03:44:08.374Z,49.95
2018-11-26T03:46:43.195Z,75.17
2018-11-26T03:49:18.353Z,91.17
2018-11-26T03:51:53.502Z,39.27
2018-11-26T03:54:28.755Z,21.93
2018-11-26T03:57:03.608Z,20.92
2018-11-26T03:59:38.343Z,21.30
2018-11-26T04:02:13.167Z,18.80
2018-11-26T04:04:48.046Z,17.37
2018-11-26T04:07:23.018Z,17.70
2018-11-26T04:09:57.825Z,17.85
2018-11-26T04:12:33.481Z,18.87
2018-11-26T04:15:13.118Z,18.00
2018-11-26T04:17:48.331Z,17.50
2018-11-26T04:20:23.559Z,16.48
2018-11-26T04:22:58.387Z,16.50
2018-11-26T04:25:33.323Z,16.17
2018-11-26T04:28:08.211Z,16.10
2018-11-26T04:30:42.962Z,15.80
2018-11-26T04:33:18.195Z,14.68
2018-11-26T04:35:52.976Z,12.97
2018-11-26T04:38:28.424Z,11.83
2018-11-26T04:41:03.367Z,11.45
2018-11-26T04:43:38.415Z,10.82
2018-11-26T04:46:13.435Z,11.03
2018-11-26T04:48:48.256Z,10.60
2018-11-26T04:51:23.296Z,9.45
2018-11-26T04:53:57.987Z,9.35
2018-11-26T04:56:33.075Z,9.90
2018-11-26T04:59:07.919Z,9.30
2018-11-26T05:01:43.550Z,9.50
2018-11-26T05:04:19.228Z,10.53
2018-11-26T05:06:54.330Z,10.35
2018-11-26T05:09:29.282Z,10.85
2018-11-26T05:12:04.932Z,11.25
2018-11-26T05:14:39.943Z,11.48
2018-11-26T05:17:15.100Z,11.53
2018-11-26T05:19:50.517Z,11.80
2018-11-26T05:22:26.261Z,12.10
2018-11-26T05:25:01.444Z,11.97
2018-11-26T05:27:36.683Z,11.83
2018-11-26T05:30:13.819Z,11.43
2018-11-26T05:32:48.877Z,11.43
2018-11-26T05:35:24.035Z,11.65
2018-11-26T05:37:59.034Z,11.73
2018-11-26T05:40:33.822Z,12.33
2018-11-26T05:43:12.466Z,12.55
2018-11-26T05:45:47.627Z,12.13
2018-11-26T05:48:22.848Z,13.08
2018-11-26T05:50:57.545Z,12.33
2018-11-26T05:53:33.100Z,12.95
2018-11-26T05:56:08.334Z,13.63
2018-11-26T05:58:43.100Z,13.80
2018-11-26T06:01:18.043Z,14.25
2018-11-26T06:03:52.809Z,14.40
2018-11-26T06:06:27.703Z,13.88
2018-11-26T06:09:02.707Z,13.80
2018-11-26T06:11:38.911Z,14.50
2018-11-26T06:14:13.666Z,15.80
2018-11-26T06:16:53.697Z,15.67
2018-11-26T06:19:24.063Z,16.73
2018-11-26T06:21:59.065Z,16.30
2018-11-26T06:24:33.991Z,15.88
2018-11-26T06:27:08.928Z,16.17
2018-11-26T06:29:43.654Z,15.32
2018-11-26T06:32:18.734Z,15.32
2018-11-26T06:34:53.541Z,15.32
2018-11-26T06:37:28.722Z,15.28
2018-11-26T06:40:04.208Z,15.95
2018-11-26T06:42:39.038Z,17.15
2018-11-26T06:45:21.254Z,17.55
2018-11-26T06:47:56.043Z,16.03
2018-11-26T06:50:31.476Z,16.77
2018-11-26T06:53:07.469Z,16.10
2018-11-26T06:55:42.359Z,15.53
2018-11-26T06:58:17.428Z,15.50
2018-11-26T07:00:52.459Z,15.43
2018-11-26T07:03:27.379Z,15.08
2018-11-26T07:06:02.182Z,14.78
2018-11-26T07:08:37.082Z,13.95
2018-11-26T07:11:12.069Z,14.33
2018-11-26T07:13:47.511Z,13.28
2018-11-26T07:16:22.534Z,13.50
2018-11-26T07:18:57.637Z,13.15
2018-11-26T07:21:33.252Z,13.30
2018-11-26T07:24:08.189Z,13.30
2018-11-26T07:26:43.196Z,14.43
2018-11-26T07:29:24.025Z,14.53
2018-11-26T07:31:53.007Z,13.80
2018-11-26T07:34:27.934Z,13.30
2018-11-26T07:37:02.662Z,15.63
2018-11-26T07:39:37.410Z,14.87
2018-11-26T07:42:13.048Z,16.27
2018-11-26T07:44:48.723Z,12.47
2018-11-26T07:47:23.950Z,11.40
2018-11-26T07:49:59.210Z,11.57
2018-11-26T07:52:35.915Z,10.68
2018-11-26T07:55:19.610Z,10.60
2018-11-26T07:57:54.535Z,10.95
2018-11-26T08:00:29.406Z,9.98
2018-11-26T08:03:04.928Z,11.93
2018-11-26T08:05:39.937Z,11.93
2018-11-26T08:08:15.040Z,12.33
2018-11-26T08:10:50.015Z,13.38
2018-11-26T08:13:25.862Z,13.40
2018-11-26T08:16:00.629Z,16.27
2018-11-26T08:18:35.878Z,14.55
2018-11-26T08:21:10.673Z,14.68
2018-11-26T08:23:45.750Z,15.75
2018-11-26T08:26:20.645Z,15.20
2018-11-26T08:28:55.413Z,15.68
2018-11-26T08:31:31.174Z,15.70
2018-11-26T08:34:06.165Z,16.70
2018-11-26T08:36:44.294Z,18.02
2018-11-26T08:39:20.301Z,18.45
2018-11-26T08:41:55.076Z,19.30
2018-11-26T08:44:35.235Z,20.27
2018-11-26T08:47:15.681Z,20.30
2018-11-26T08:49:51.223Z,19.10
2018-11-26T08:52:26.368Z,18.80
2018-11-26T08:55:01.434Z,18.95
2018-11-26T08:57:36.426Z,18.70
2018-11-26T09:00:12.244Z,18.30
2018-11-26T09:02:53.330Z,18.87
2018-11-26T09:05:33.894Z,20.05
2018-11-26T09:08:10.816Z,19.23
2018-11-26T09:10:45.669Z,19.03
2018-11-26T09:13:20.634Z,18.42
2018-11-26T09:15:55.630Z,18.45
2018-11-26T09:18:30.929Z,18.32
2018-11-26T09:21:06.007Z,18.15
2018-11-26T09:23:41.075Z,19.00
2018-11-26T09:26:16.132Z,19.82
2018-11-26T09:28:51.214Z,20.00
2018-11-26T09:31:26.317Z,19.30
2018-11-26T09:34:01.426Z,19.87
2018-11-26T09:36:36.220Z,20.57
2018-11-26T09:39:11.930Z,19.45
2018-11-26T09:41:47.530Z,19.67
2018-11-26T09:44:22.619Z,19.95
2018-11-26T09:46:57.743Z,21.07
2018-11-26T09:49:32.865Z,29.75
2018-11-26T09:52:07.787Z,30.12
2018-11-26T09:54:42.756Z,24.80
2018-11-26T09:57:17.660Z,23.43
2018-11-26T09:59:52.473Z,24.07
2018-11-26T10:02:27.650Z,23.50
2018-11-26T10:05:02.782Z,22.80
2018-11-26T10:07:38.716Z,23.57
2018-11-26T10:10:14.217Z,23.35
2018-11-26T10:12:48.977Z,23.18
2018-11-26T10:15:25.236Z,22.13
2018-11-26T10:18:00.319Z,23.65
2018-11-26T10:20:36.212Z,23.38
2018-11-26T10:23:11.251Z,24.23
2018-11-26T10:25:47.367Z,22.98
2018-11-26T10:28:22.325Z,23.67
2018-11-26T10:30:57.254Z,22.80
2018-11-26T10:33:32.300Z,23.90
2018-11-26T10:36:07.110Z,24.80
2018-11-26T10:38:41.801Z,24.30
2018-11-26T10:41:16.859Z,25.50
2018-11-26T10:43:51.743Z,25.80
2018-11-26T10:46:26.687Z,24.45
2018-11-26T10:49:01.514Z,25.57
2018-11-26T10:51:36.365Z,26.82
2018-11-26T10:54:11.307Z,26.77
2018-11-26T10:56:46.158Z,27.43
2018-11-26T10:59:21.087Z,26.65
2018-11-26T11:02:02.311Z,26.95
2018-11-26T11:04:37.274Z,26.30
2018-11-26T11:07:12.435Z,26.07
2018-11-26T11:09:47.502Z,24.98
2018-11-26T11:12:22.294Z,24.75
2018-11-26T11:14:58.287Z,25.17
2018-11-26T11:17:32.955Z,24.63
2018-11-26T11:20:16.343Z,25.60
2018-11-26T11:22:51.739Z,73.65
2018-11-26T11:25:27.111Z,27.13
2018-11-26T11:28:02.840Z,25.17
2018-11-26T11:30:37.680Z,25.40
2018-11-26T11:35:47.096Z,25.35
2018-11-26T11:38:22.161Z,24.95
2018-11-26T11:40:57.728Z,25.25
2018-11-26T11:43:32.741Z,25.55
2018-11-26T11:46:07.663Z,26.85
2018-11-26T11:48:42.803Z,27.42
2018-11-26T11:51:17.801Z,26.27
2018-11-26T11:53:52.659Z,27.90
2018-11-26T11:56:27.722Z,25.50
2018-11-26T11:59:02.866Z,25.37
2018-11-26T12:01:38.075Z,26.35
2018-11-26T12:04:13.257Z,26.35
2018-11-26T12:06:48.069Z,25.90
2018-11-26T12:09:22.891Z,26.42
2018-11-26T12:11:58.125Z,25.50
2018-11-26T12:14:33.168Z,24.57
2018-11-26T12:17:08.315Z,24.07
2018-11-26T12:19:43.404Z,24.98
2018-11-26T12:22:19.119Z,23.83
2018-11-26T12:24:54.141Z,24.18
2018-11-26T12:27:29.082Z,24.80
2018-11-26T12:30:04.631Z,23.98
2018-11-26T12:32:40.647Z,23.73
2018-11-26T12:35:15.944Z,23.57
2018-11-26T12:37:50.993Z,24.67
2018-11-26T12:40:26.884Z,24.00
2018-11-26T12:43:03.063Z,23.80
2018-11-26T12:45:38.047Z,24.45
2018-11-26T12:48:13.279Z,23.50
2018-11-26T12:50:48.252Z,22.75
2018-11-26T12:53:23.085Z,22.87
2018-11-26T12:55:57.912Z,22.55
2018-11-26T12:58:32.864Z,22.05
2018-11-26T13:01:07.745Z,21.65
2018-11-26T13:03:42.871Z,21.90
2018-11-26T13:06:18.106Z,23.05
2018-11-26T13:08:53.391Z,22.87
2018-11-26T13:11:28.861Z,22.60
2018-11-26T13:14:04.205Z,21.48
2018-11-26T13:16:39.212Z,30.97
2018-11-26T13:19:13.998Z,25.02
2018-11-26T13:21:48.765Z,23.92
2018-11-26T13:24:23.647Z,22.58
2018-11-26T13:26:59.275Z,22.32
2018-11-26T13:29:34.185Z,23.15
2018-11-26T13:32:09.417Z,22.40
2018-11-26T13:34:44.585Z,21.30
2018-11-26T13:37:19.587Z,21.65
2018-11-26T13:39:54.668Z,21.45
2018-11-26T13:42:29.736Z,22.17
2018-11-26T13:45:05.154Z,22.17
2018-11-26T13:47:40.541Z,21.68
2018-11-26T13:50:23.026Z,22.45
2018-11-26T13:52:57.347Z,22.27
2018-11-26T13:55:32.291Z,22.87
2018-11-26T13:58:07.418Z,23.23
2018-11-26T14:00:42.247Z,21.70
2018-11-26T14:03:17.482Z,22.82
2018-11-26T14:05:52.411Z,22.77
2018-11-26T14:08:27.677Z,23.32
2018-11-26T14:11:02.489Z,23.60
2018-11-26T14:13:37.556Z,24.07
2018-11-26T14:16:12.284Z,24.72
2018-11-26T14:18:47.264Z,24.18
2018-11-26T14:21:21.924Z,24.43
2018-11-26T14:23:57.426Z,29.45
2018-11-26T14:26:32.510Z,25.17
2018-11-26T14:29:08.158Z,25.97
2018-11-26T14:31:43.353Z,27.05
2018-11-26T14:34:18.522Z,25.60
2018-11-26T14:36:53.361Z,25.43
2018-11-26T14:39:28.461Z,24.70
2018-11-26T14:42:03.498Z,23.27
2018-11-26T14:44:38.615Z,23.47
2018-11-26T14:47:13.610Z,23.20
2018-11-26T14:49:48.764Z,23.57
2018-11-26T14:52:23.697Z,22.77
2018-11-26T14:54:58.533Z,22.13
2018-11-26T14:57:33.869Z,22.77
2018-11-26T15:00:13.161Z,26.60
2018-11-26T15:02:48.004Z,24.10
2018-11-26T15:05:22.850Z,21.57
2018-11-26T15:07:57.884Z,21.07
2018-11-26T15:10:32.709Z,20.70
2018-11-26T15:13:09.184Z,19.75
2018-11-26T15:15:44.345Z,18.57
2018-11-26T15:18:19.422Z,17.87
2018-11-26T15:20:54.220Z,15.93
2018-11-26T15:23:29.109Z,15.72
2018-11-26T15:26:04.040Z,15.38
2018-11-26T15:28:39.118Z,14.33
2018-11-26T15:31:14.326Z,14.73
2018-11-26T15:33:49.707Z,14.45
2018-11-26T15:36:24.771Z,14.63
2018-11-26T15:39:00.141Z,14.05
2018-11-26T15:41:36.032Z,14.23
2018-11-26T15:44:12.095Z,14.15
2018-11-26T15:46:47.064Z,14.23
2018-11-26T15:49:22.133Z,13.83
2018-11-26T15:51:57.616Z,13.98
2018-11-26T15:54:32.865Z,17.23
2018-11-26T15:57:07.932Z,16.80
2018-11-26T15:59:42.802Z,16.90
2018-11-26T16:02:18.504Z,17.42
2018-11-26T16:04:54.156Z,15.30
2018-11-26T16:07:29.416Z,18.00
2018-11-26T16:10:04.869Z,15.38
2018-11-26T16:12:40.268Z,14.70
2018-11-26T16:15:17.492Z,14.30
2018-11-26T16:17:53.421Z,14.43
2018-11-26T16:20:28.775Z,14.65
2018-11-26T16:23:04.096Z,15.48
2018-11-26T16:25:44.316Z,15.18
2018-11-26T16:28:21.999Z,14.40
2018-11-26T16:30:56.873Z,14.10
2018-11-26T16:33:32.212Z,14.53
2018-11-26T16:36:07.293Z,14.60
2018-11-26T16:38:42.600Z,15.30
2018-11-26T16:41:17.990Z,17.35
2018-11-26T16:43:53.754Z,17.45
2018-11-26T16:46:28.594Z,15.63
2018-11-26T16:49:03.437Z,17.67
2018-11-26T16:51:38.287Z,16.40
2018-11-26T16:54:13.304Z,16.40
2018-11-26T16:56:48.444Z,19.25
2018-11-26T16:59:23.730Z,17.45
2018-11-26T17:01:59.244Z,19.95
2018-11-26T17:04:34.400Z,20.68
2018-11-26T17:07:09.336Z,17.25
2018-11-26T17:09:44.440Z,16.23
2018-11-26T17:12:19.972Z,19.12
2018-11-26T17:14:54.880Z,16.30
2018-11-26T17:17:29.781Z,35.27
2018-11-26T17:20:05.044Z,17.80
2018-11-26T17:22:40.169Z,18.40
2018-11-26T17:25:16.876Z,16.80
2018-11-26T17:27:51.789Z,15.33
2018-11-26T17:30:28.220Z,15.83
2018-11-26T17:33:04.450Z,23.05
2018-11-26T17:35:40.308Z,18.40
2018-11-26T17:38:15.399Z,16.35
2018-11-26T17:40:50.272Z,17.67
2018-11-26T17:43:25.405Z,16.48
2018-11-26T17:46:00.572Z,17.33
2018-11-26T17:48:35.712Z,15.53
2018-11-26T17:51:11.013Z,15.95
2018-11-26T17:53:45.971Z,15.80
2018-11-26T17:56:20.843Z,14.63
2018-11-26T17:58:56.332Z,13.55
2018-11-26T18:01:39.464Z,13.75
2018-11-26T18:04:15.059Z,13.25
2018-11-26T18:06:50.201Z,13.20
2018-11-26T18:09:25.656Z,12.85
2018-11-26T18:12:00.671Z,12.43
2018-11-26T18:14:35.593Z,11.63
2018-11-26T18:17:10.513Z,11.93
2018-11-26T18:19:45.394Z,12.47
2018-11-26T18:22:20.860Z,12.88
2018-11-26T18:24:56.195Z,12.00
2018-11-26T18:27:31.556Z,13.25
2018-11-26T18:30:14.124Z,12.98
2018-11-26T18:32:49.106Z,12.33
2018-11-26T18:35:24.685Z,13.03
2018-11-26T18:38:00.049Z,13.55
2018-11-26T18:40:35.668Z,13.10
2018-11-26T18:43:10.889Z,13.20
2018-11-26T18:45:46.376Z,12.73
2018-11-26T18:48:22.475Z,12.93
2018-11-26T18:50:57.360Z,12.90
2018-11-26T18:53:32.305Z,13.60
2018-11-26T18:56:07.882Z,13.75
2018-11-26T18:58:43.627Z,12.93
2018-11-26T19:01:18.743Z,15.10
2018-11-26T19:03:53.901Z,13.90
2018-11-26T19:06:29.228Z,14.65
2018-11-26T19:09:05.479Z,14.33
2018-11-26T19:11:40.323Z,14.07
2018-11-26T19:14:18.854Z,14.07
2018-11-26T19:16:54.088Z,13.87
2018-11-26T19:19:29.082Z,13.97
2018-11-26T19:22:05.039Z,14.95
2018-11-26T19:24:40.169Z,14.30
2018-11-26T19:27:15.661Z,16.32
2018-11-26T19:29:50.990Z,15.70
2018-11-26T19:32:26.615Z,15.50
2018-11-26T19:35:01.718Z,16.40
2018-11-26T19:37:36.894Z,15.98
2018-11-26T19:40:15.690Z,17.65
2018-11-26T19:42:50.946Z,16.03
2018-11-26T19:45:26.200Z,15.80
2018-11-26T19:48:01.840Z,15.85
2018-11-26T19:50:37.190Z,15.53
2018-11-26T19:53:13.312Z,15.30
2018-11-26T19:55:48.791Z,15.08
2018-11-26T19:58:23.708Z,15.08
2018-11-26T20:00:58.564Z,14.93
2018-11-26T20:03:37.285Z,15.07
2018-11-26T20:06:14.613Z,14.43
2018-11-26T20:08:52.223Z,15.45
2018-11-26T20:11:33.113Z,15.08
2018-11-26T20:14:03.373Z,15.15
2018-11-26T20:16:41.552Z,15.95
2018-11-26T20:19:17.110Z,16.15
2018-11-26T20:21:52.209Z,16.82
2018-11-26T20:24:27.035Z,15.47
2018-11-26T20:27:02.119Z,16.13
2018-11-26T20:29:37.265Z,14.90
2018-11-26T20:32:12.502Z,15.23
2018-11-26T20:34:47.536Z,15.15
2018-11-26T20:37:22.361Z,14.73
2018-11-26T20:39:57.047Z,15.05
2018-11-26T20:42:32.964Z,15.78
2018-11-26T20:45:12.610Z,15.90
2018-11-26T20:47:49.015Z,15.23
2018-11-26T20:50:25.916Z,14.38
2018-11-26T20:53:01.036Z,14.50
2018-11-26T20:55:35.968Z,14.80
2018-11-26T20:58:10.809Z,14.28
2018-11-26T21:00:45.831Z,15.10
2018-11-26T21:03:20.618Z,15.20
2018-11-26T21:05:55.430Z,14.18
2018-11-26T21:08:30.283Z,14.50
2018-11-26T21:11:05.340Z,15.30
2018-11-26T21:13:40.723Z,15.30
2018-11-26T21:16:15.782Z,15.08
2018-11-26T21:18:50.803Z,14.95
2018-11-26T21:21:25.707Z,15.20
2018-11-26T21:24:01.081Z,14.25
2018-11-26T21:26:37.398Z,13.80
2018-11-26T21:29:12.601Z,12.80
2018-11-26T21:31:48.457Z,12.90
2018-11-26T21:34:23.432Z,12.82
2018-11-26T21:36:58.493Z,13.03
2018-11-26T21:39:33.233Z,12.82
2018-11-26T21:42:08.055Z,12.75
2018-11-26T21:44:43.149Z,13.38
2018-11-26T21:47:17.983Z,12.07
2018-11-26T21:49:52.786Z,12.77
2018-11-26T21:52:27.822Z,12.63
2018-11-26T21:55:03.251Z,12.35
2018-11-26T21:57:38.217Z,12.47
2018-11-26T22:00:15.239Z,13.10
2018-11-26T22:02:50.661Z,12.37
2018-11-26T22:05:26.335Z,12.70
2018-11-26T22:08:01.471Z,12.37
2018-11-26T22:10:37.387Z,13.20
2018-11-26T22:13:14.258Z,12.30
2018-11-26T22:15:49.039Z,12.73
2018-11-26T22:18:24.985Z,13.25
2018-11-26T22:21:00.195Z,13.40
2018-11-26T22:23:35.190Z,12.58
2018-11-26T22:26:10.099Z,13.50
2018-11-26T22:28:45.670Z,12.93
2018-11-26T22:31:20.588Z,13.37
2018-11-26T22:33:55.497Z,13.35
2018-11-26T22:36:30.361Z,13.33
2018-11-26T22:39:10.997Z,13.32
2018-11-26T22:41:46.104Z,13.27
2018-11-26T22:44:21.175Z,13.43
2018-11-26T22:46:56.239Z,14.10
2018-11-26T22:49:31.144Z,15.35
2018-11-26T22:52:06.024Z,14.55
2018-11-26T22:54:40.811Z,14.33
2018-11-26T22:57:15.706Z,14.63
2018-11-26T22:59:51.686Z,13.98
2018-11-26T23:02:26.404Z,14.10
2018-11-26T23:05:01.260Z,13.90
2018-11-26T23:07:36.685Z,13.10
2018-11-26T23:10:12.417Z,12.82
2018-11-26T23:12:47.675Z,13.68
2018-11-26T23:15:22.388Z,13.95
2018-11-26T23:17:57.868Z,13.45
2018-11-26T23:20:32.973Z,12.73
2018-11-26T23:23:07.908Z,14.15
2018-11-26T23:25:44.115Z,14.10
2018-11-26T23:28:18.908Z,14.47
2018-11-26T23:30:53.941Z,14.45
2018-11-26T23:33:30.172Z,14.20
2018-11-26T23:36:05.098Z,13.80
2018-11-26T23:38:40.084Z,14.35
2018-11-26T23:41:14.938Z,14.63
2018-11-26T23:43:49.857Z,16.07
2018-11-26T23:46:24.664Z,16.03
2018-11-26T23:49:00.858Z,16.55
2018-11-26T23:51:35.928Z,16.40
2018-11-26T23:54:10.864Z,16.12
2018-11-26T23:56:46.076Z,15.60
2018-11-26T23:59:20.800Z,15.53
